sensor_id;sensor_type;location;lat;lon;timestamp;pressure;altitude;pressure_sealevel;temperature;humidity
36598;BME280;22607;49.550;11.940;2023-06-24T00:00:00;97724.63;;;15.56;100.00
36598;BME280;22607;49.550;11.940;2023-06-24T00:02:27;97723.09;;;15.62;100.00
36598;BME280;22607;49.550;11.940;2023-06-24T00:04:54;97723.34;;;15.67;100.00
36598;BME280;22607;49.550;11.940;2023-06-24T00:07:20;97716.47;;;15.73;100.00
36598;BME280;22607;49.550;11.940;2023-06-24T00:09:50;97709.47;;;15.65;100.00
36598;BME280;22607;49.550;11.940;2023-06-24T00:12:16;97710.81;;;15.61;100.00
36598;BME280;22607;49.550;11.940;2023-06-24T00:14:50;97695.22;;;15.66;100.00
36598;BME280;22607;49.550;11.940;2023-06-24T00:17:16;97699.88;;;15.64;100.00
36598;BME280;22607;49.550;11.940;2023-06-24T00:19:43;97690.31;;;15.63;100.00
36598;BME280;22607;49.550;11.940;2023-06-24T00:22:12;97695.41;;;15.65;100.00
36598;BME280;22607;49.550;11.940;2023-06-24T00:24:41;97696.47;;;15.70;100.00
36598;BME280;22607;49.550;11.940;2023-06-24T00:27:09;97699.25;;;15.62;100.00
36598;BME280;22607;49.550;11.940;2023-06-24T00:29:36;97696.47;;;15.70;100.00
36598;BME280;22607;49.550;11.940;2023-06-24T00:32:04;97694.84;;;15.69;100.00
36598;BME280;22607;49.550;11.940;2023-06-24T00:34:31;97694.84;;;15.69;100.00
36598;BME280;22607;49.550;11.940;2023-06-24T00:36:57;97697.69;;;15.68;100.00
36598;BME280;22607;49.550;11.940;2023-06-24T00:39:24;97693.13;;;15.61;100.00
36598;BME280;22607;49.550;11.940;2023-06-24T00:41:50;97680.97;;;15.37;100.00
36598;BME280;22607;49.550;11.940;2023-06-24T00:44:17;97687.19;;;15.44;100.00
36598;BME280;22607;49.550;11.940;2023-06-24T00:46:44;97681.06;;;15.44;100.00
36598;BME280;22607;49.550;11.940;2023-06-24T00:49:10;97690.56;;;15.53;100.00
36598;BME280;22607;49.550;11.940;2023-06-24T00:51:41;97685.56;;;15.43;100.00
36598;BME280;22607;49.550;11.940;2023-06-24T00:54:17;97688.66;;;15.47;100.00
36598;BME280;22607;49.550;11.940;2023-06-24T00:56:45;97692.28;;;15.61;100.00
36598;BME280;22607;49.550;11.940;2023-06-24T00:59:13;97690.66;;;15.60;100.00
36598;BME280;22607;49.550;11.940;2023-06-24T01:01:41;97683.00;;;15.35;100.00
36598;BME280;22607;49.550;11.940;2023-06-24T01:04:08;97682.81;;;15.52;100.00
36598;BME280;22607;49.550;11.940;2023-06-24T01:06:35;97675.53;;;15.54;100.00
36598;BME280;22607;49.550;11.940;2023-06-24T01:09:03;97672.22;;;15.52;100.00
36598;BME280;22607;49.550;11.940;2023-06-24T01:11:31;97677.59;;;15.58;100.00
36598;BME280;22607;49.550;11.940;2023-06-24T01:13:58;97675.78;;;15.59;100.00
36598;BME280;22607;49.550;11.940;2023-06-24T01:16:31;97677.34;;;15.53;100.00
36598;BME280;22607;49.550;11.940;2023-06-24T01:19:28;97677.50;;;15.52;100.00
36598;BME280;22607;49.550;11.940;2023-06-24T01:25:44;97676.31;;;15.54;100.00
36598;BME280;22607;49.550;11.940;2023-06-24T01:31:30;97674.31;;;15.56;100.00
36598;BME280;22607;49.550;11.940;2023-06-24T01:39:31;97662.53;;;15.44;100.00
36598;BME280;22607;49.550;11.940;2023-06-24T01:42:06;97661.00;;;15.49;100.00
36598;BME280;22607;49.550;11.940;2023-06-24T01:44:34;97642.81;;;15.46;100.00
36598;BME280;22607;49.550;11.940;2023-06-24T01:47:03;97650.94;;;15.45;100.00
36598;BME280;22607;49.550;11.940;2023-06-24T01:49:31;97650.22;;;15.51;100.00
36598;BME280;22607;49.550;11.940;2023-06-24T01:52:00;97644.94;;;15.51;100.00
36598;BME280;22607;49.550;11.940;2023-06-24T01:54:28;97650.16;;;15.44;100.00
36598;BME280;22607;49.550;11.940;2023-06-24T01:56:57;97633.25;;;15.45;100.00
36598;BME280;22607;49.550;11.940;2023-06-24T01:59:28;97643.47;;;15.48;100.00
36598;BME280;22607;49.550;11.940;2023-06-24T02:01:55;97652.13;;;15.42;100.00
36598;BME280;22607;49.550;11.940;2023-06-24T02:04:24;97646.03;;;15.42;100.00
36598;BME280;22607;49.550;11.940;2023-06-24T02:06:52;97654.50;;;15.52;100.00
36598;BME280;22607;49.550;11.940;2023-06-24T02:09:20;97639.28;;;15.39;100.00
36598;BME280;22607;49.550;11.940;2023-06-24T02:11:49;97648.88;;;15.40;100.00
36598;BME280;22607;49.550;11.940;2023-06-24T02:14:17;97644.38;;;15.41;100.00
36598;BME280;22607;49.550;11.940;2023-06-24T02:16:46;97650.16;;;15.44;100.00
36598;BME280;22607;49.550;11.940;2023-06-24T02:19:13;97648.88;;;15.40;100.00
36598;BME280;22607;49.550;11.940;2023-06-24T02:21:44;97647.84;;;15.41;100.00
36598;BME280;22607;49.550;11.940;2023-06-24T02:24:11;97650.78;;;15.46;100.00
36598;BME280;22607;49.550;11.940;2023-06-24T02:26:38;97641.38;;;15.29;100.00
36598;BME280;22607;49.550;11.940;2023-06-24T02:29:09;97636.00;;;15.37;100.00
36598;BME280;22607;49.550;11.940;2023-06-24T02:31:37;97632.19;;;15.25;100.00
36598;BME280;22607;49.550;11.940;2023-06-24T02:34:05;97641.00;;;15.32;100.00
36598;BME280;22607;49.550;11.940;2023-06-24T02:36:33;97635.44;;;15.27;100.00
36598;BME280;22607;49.550;11.940;2023-06-24T02:39:00;97637.34;;;15.33;100.00
36598;BME280;22607;49.550;11.940;2023-06-24T02:41:26;97646.47;;;15.30;100.00
36598;BME280;22607;49.550;11.940;2023-06-24T02:43:54;97644.19;;;15.42;100.00
36598;BME280;22607;49.550;11.940;2023-06-24T02:46:20;97647.69;;;15.43;100.00
36598;BME280;22607;49.550;11.940;2023-06-24T02:48:49;97658.63;;;15.40;100.00
36598;BME280;22607;49.550;11.940;2023-06-24T02:51:16;97653.41;;;15.46;100.00
36598;BME280;22607;49.550;11.940;2023-06-24T02:53:45;97652.41;;;15.47;100.00
36598;BME280;22607;49.550;11.940;2023-06-24T02:56:13;97665.63;;;15.47;100.00
36598;BME280;22607;49.550;11.940;2023-06-24T02:58:41;97663.72;;;15.41;100.00
36598;BME280;22607;49.550;11.940;2023-06-24T03:01:10;97652.53;;;15.39;100.00
36598;BME280;22607;49.550;11.940;2023-06-24T03:03:37;97668.28;;;15.47;100.00
36598;BME280;22607;49.550;11.940;2023-06-24T03:06:04;97673.97;;;15.44;100.00
36598;BME280;22607;49.550;11.940;2023-06-24T03:08:31;97667.22;;;15.42;100.00
36598;BME280;22607;49.550;11.940;2023-06-24T03:10:58;97671.59;;;15.49;100.00
36598;BME280;22607;49.550;11.940;2023-06-24T03:13:25;97677.50;;;15.52;100.00
36598;BME280;22607;49.550;11.940;2023-06-24T03:15:52;97675.78;;;15.44;100.00
36598;BME280;22607;49.550;11.940;2023-06-24T03:18:19;97691.41;;;15.54;100.00
36598;BME280;22607;49.550;11.940;2023-06-24T03:20:46;97687.75;;;15.55;100.00
36598;BME280;22607;49.550;11.940;2023-06-24T03:23:14;97684.09;;;15.56;100.00
36598;BME280;22607;49.550;11.940;2023-06-24T03:25:40;97687.19;;;15.44;100.00
36598;BME280;22607;49.550;11.940;2023-06-24T03:28:07;97690.66;;;15.45;100.00
36598;BME280;22607;49.550;11.940;2023-06-24T03:30:34;97695.16;;;15.44;100.00
36598;BME280;22607;49.550;11.940;2023-06-24T03:33:01;97705.81;;;15.51;100.00
36598;BME280;22607;49.550;11.940;2023-06-24T03:35:28;97701.81;;;15.55;100.00
36598;BME280;22607;49.550;11.940;2023-06-24T03:37:56;97700.72;;;15.49;100.00
36598;BME280;22607;49.550;11.940;2023-06-24T03:40:22;97698.34;;;15.55;100.00
36598;BME280;22607;49.550;11.940;2023-06-24T03:42:49;97710.56;;;15.56;100.00
36598;BME280;22607;49.550;11.940;2023-06-24T03:45:15;97714.13;;;15.63;100.00
36598;BME280;22607;49.550;11.940;2023-06-24T03:47:43;97700.44;;;15.44;100.00
36598;BME280;22607;49.550;11.940;2023-06-24T03:50:09;97713.03;;;15.57;100.00
36598;BME280;22607;49.550;11.940;2023-06-24T03:52:36;97726.81;;;15.53;100.00
36598;BME280;22607;49.550;11.940;2023-06-24T03:55:04;97725.81;;;15.54;100.00
36598;BME280;22607;49.550;11.940;2023-06-24T03:57:31;97729.66;;;15.51;100.00
36598;BME280;22607;49.550;11.940;2023-06-24T03:59:58;97731.91;;;15.54;100.00
36598;BME280;22607;49.550;11.940;2023-06-24T04:02:25;97734.31;;;15.64;100.00
36598;BME280;22607;49.550;11.940;2023-06-24T04:04:53;97721.41;;;15.61;100.00
36598;BME280;22607;49.550;11.940;2023-06-24T04:07:22;97732.19;;;15.74;100.00
36598;BME280;22607;49.550;11.940;2023-06-24T04:09:55;97724.06;;;15.61;100.00
36598;BME280;22607;49.550;11.940;2023-06-24T04:12:22;97736.47;;;15.75;100.00
36598;BME280;22607;49.550;11.940;2023-06-24T04:14:49;97737.88;;;15.71;100.00
36598;BME280;22607;49.550;11.940;2023-06-24T04:17:15;97741.41;;;15.79;100.00
36598;BME280;22607;49.550;11.940;2023-06-24T04:19:42;97743.88;;;15.80;100.00
36598;BME280;22607;49.550;11.940;2023-06-24T04:22:09;97750.06;;;15.87;100.00
36598;BME280;22607;49.550;11.940;2023-06-24T04:24:35;97748.25;;;15.88;100.00
36598;BME280;22607;49.550;11.940;2023-06-24T04:27:02;97753.66;;;15.80;100.00
36598;BME280;22607;49.550;11.940;2023-06-24T04:29:29;97755.94;;;15.83;100.00
36598;BME280;22607;49.550;11.940;2023-06-24T04:31:55;97752.19;;;15.92;100.00
36598;BME280;22607;49.550;11.940;2023-06-24T04:34:22;97748.19;;;15.96;100.00
36598;BME280;22607;49.550;11.940;2023-06-24T04:36:48;97753.19;;;15.91;100.00
36598;BME280;22607;49.550;11.940;2023-06-24T04:39:15;97752.66;;;15.96;100.00
36598;BME280;22607;49.550;11.940;2023-06-24T04:41:43;97751.28;;;16.00;100.00
36598;BME280;22607;49.550;11.940;2023-06-24T04:44:10;97753.19;;;15.91;100.00
36598;BME280;22607;49.550;11.940;2023-06-24T04:46:37;97756.97;;;15.97;100.00
36598;BME280;22607;49.550;11.940;2023-06-24T04:49:03;97759.69;;;16.04;100.00
36598;BME280;22607;49.550;11.940;2023-06-24T04:51:30;97767.88;;;16.39;100.00
36598;BME280;22607;49.550;11.940;2023-06-24T04:53:57;97762.41;;;16.25;100.00
36598;BME280;22607;49.550;11.940;2023-06-24T04:56:24;97761.88;;;16.52;100.00
36598;BME280;22607;49.550;11.940;2023-06-24T04:58:51;97756.59;;;16.74;100.00
36598;BME280;22607;49.550;11.940;2023-06-24T05:01:17;97756.03;;;17.86;100.00
36598;BME280;22607;49.550;11.940;2023-06-24T05:03:44;97760.47;;;18.97;100.00
36598;BME280;22607;49.550;11.940;2023-06-24T05:06:10;97759.84;;;19.49;100.00
36598;BME280;22607;49.550;11.940;2023-06-24T05:08:37;97764.75;;;19.72;100.00
36598;BME280;22607;49.550;11.940;2023-06-24T05:11:04;97768.38;;;19.98;100.00
36598;BME280;22607;49.550;11.940;2023-06-24T05:13:30;97764.72;;;19.86;100.00
36598;BME280;22607;49.550;11.940;2023-06-24T05:15:57;97770.34;;;20.30;100.00
36598;BME280;22607;49.550;11.940;2023-06-24T05:18:24;97774.25;;;20.66;100.00
36598;BME280;22607;49.550;11.940;2023-06-24T05:20:50;97761.19;;;20.90;93.56
36598;BME280;22607;49.550;11.940;2023-06-24T05:23:17;97761.31;;;21.02;92.98
36598;BME280;22607;49.550;11.940;2023-06-24T05:25:43;97777.59;;;21.45;89.69
36598;BME280;22607;49.550;11.940;2023-06-24T05:28:10;97769.81;;;21.62;83.24
36598;BME280;22607;49.550;11.940;2023-06-24T05:30:37;97774.25;;;21.75;84.63
36598;BME280;22607;49.550;11.940;2023-06-24T05:33:04;97776.53;;;21.71;84.19
36598;BME280;22607;49.550;11.940;2023-06-24T05:35:33;97779.81;;;21.73;80.70
36598;BME280;22607;49.550;11.940;2023-06-24T05:38:00;97779.16;;;21.97;81.24
36598;BME280;22607;49.550;11.940;2023-06-24T05:40:27;97779.38;;;22.14;78.69
36598;BME280;22607;49.550;11.940;2023-06-24T05:42:53;97785.16;;;21.73;79.88
36598;BME280;22607;49.550;11.940;2023-06-24T05:45:20;97770.31;;;22.15;78.27
36598;BME280;22607;49.550;11.940;2023-06-24T05:47:46;97787.00;;;22.48;78.78
36598;BME280;22607;49.550;11.940;2023-06-24T05:50:13;97779.91;;;22.23;84.26
36598;BME280;22607;49.550;11.940;2023-06-24T05:52:40;97788.25;;;22.45;81.99
36598;BME280;22607;49.550;11.940;2023-06-24T05:55:06;97784.31;;;22.66;79.49
36598;BME280;22607;49.550;11.940;2023-06-24T05:57:33;97785.13;;;22.67;77.78
36598;BME280;22607;49.550;11.940;2023-06-24T06:00:00;97785.69;;;22.01;82.41
36598;BME280;22607;49.550;11.940;2023-06-24T06:02:27;97778.59;;;22.63;80.81
36598;BME280;22607;49.550;11.940;2023-06-24T06:04:53;97791.78;;;22.76;73.80
36598;BME280;22607;49.550;11.940;2023-06-24T06:07:20;97780.44;;;22.62;75.81
36598;BME280;22607;49.550;11.940;2023-06-24T06:09:47;97784.25;;;22.97;76.04
36598;BME280;22607;49.550;11.940;2023-06-24T06:12:13;97782.34;;;23.28;75.27
36598;BME280;22607;49.550;11.940;2023-06-24T06:14:40;97784.69;;;23.37;70.72
36598;BME280;22607;49.550;11.940;2023-06-24T06:17:06;97778.66;;;22.87;70.75
36598;BME280;22607;49.550;11.940;2023-06-24T06:19:33;97780.53;;;22.55;72.76
36598;BME280;22607;49.550;11.940;2023-06-24T06:22:00;97776.13;;;22.61;72.16
36598;BME280;22607;49.550;11.940;2023-06-24T06:24:26;97773.44;;;22.92;71.86
36598;BME280;22607;49.550;11.940;2023-06-24T06:26:53;97767.06;;;23.17;71.20
36598;BME280;22607;49.550;11.940;2023-06-24T06:29:19;97770.63;;;22.87;71.32
36598;BME280;22607;49.550;11.940;2023-06-24T06:31:46;97770.31;;;23.07;66.97
36598;BME280;22607;49.550;11.940;2023-06-24T06:34:12;97774.56;;;23.51;67.32
36598;BME280;22607;49.550;11.940;2023-06-24T06:36:39;97777.13;;;23.81;64.22
36598;BME280;22607;49.550;11.940;2023-06-24T06:39:05;97770.91;;;24.17;66.10
36598;BME280;22607;49.550;11.940;2023-06-24T06:41:32;97769.53;;;24.43;63.17
36598;BME280;22607;49.550;11.940;2023-06-24T06:43:58;97753.94;;;24.57;62.91
36598;BME280;22607;49.550;11.940;2023-06-24T06:46:25;97764.75;;;24.33;62.82
36598;BME280;22607;49.550;11.940;2023-06-24T06:48:53;97760.84;;;24.24;64.20
36598;BME280;22607;49.550;11.940;2023-06-24T06:51:19;97763.75;;;24.81;60.93
36598;BME280;22607;49.550;11.940;2023-06-24T06:53:46;97755.97;;;24.96;61.75
36598;BME280;22607;49.550;11.940;2023-06-24T06:56:22;97752.38;;;24.90;59.38
36598;BME280;22607;49.550;11.940;2023-06-24T06:58:48;97754.81;;;25.43;60.20
36598;BME280;22607;49.550;11.940;2023-06-24T07:01:15;97757.53;;;24.80;59.81
36598;BME280;22607;49.550;11.940;2023-06-24T07:03:42;97748.00;;;25.36;61.26
36598;BME280;22607;49.550;11.940;2023-06-24T07:06:08;97750.06;;;25.68;59.01
36598;BME280;22607;49.550;11.940;2023-06-24T07:08:35;97742.97;;;26.01;60.05
36598;BME280;22607;49.550;11.940;2023-06-24T07:11:02;97739.66;;;26.21;57.87
36598;BME280;22607;49.550;11.940;2023-06-24T07:13:29;97738.38;;;26.02;57.66
36598;BME280;22607;49.550;11.940;2023-06-24T07:15:55;97741.88;;;26.25;56.75
36598;BME280;22607;49.550;11.940;2023-06-24T07:18:22;97745.91;;;26.00;54.33
36598;BME280;22607;49.550;11.940;2023-06-24T07:20:48;97743.81;;;26.07;56.23
36598;BME280;22607;49.550;11.940;2023-06-24T07:23:15;97748.66;;;26.27;55.04
36598;BME280;22607;49.550;11.940;2023-06-24T07:25:42;97753.34;;;26.37;55.42
36598;BME280;22607;49.550;11.940;2023-06-24T07:28:08;97741.97;;;25.68;55.28
36598;BME280;22607;49.550;11.940;2023-06-24T07:30:35;97744.81;;;25.78;54.51
36598;BME280;22607;49.550;11.940;2023-06-24T07:33:02;97729.06;;;25.48;56.09
36598;BME280;22607;49.550;11.940;2023-06-24T07:35:32;97733.09;;;26.12;55.45
36598;BME280;22607;49.550;11.940;2023-06-24T07:38:01;97735.09;;;25.77;53.92
36598;BME280;22607;49.550;11.940;2023-06-24T07:40:28;97735.88;;;25.73;57.45
36598;BME280;22607;49.550;11.940;2023-06-24T07:42:55;97735.41;;;24.73;56.67
36598;BME280;22607;49.550;11.940;2023-06-24T07:45:21;97730.84;;;24.73;55.87
36598;BME280;22607;49.550;11.940;2023-06-24T07:47:52;97740.53;;;25.43;59.00
36598;BME280;22607;49.550;11.940;2023-06-24T07:50:18;97720.75;;;25.89;55.65
36598;BME280;22607;49.550;11.940;2023-06-24T07:52:45;97733.22;;;26.45;55.92
36598;BME280;22607;49.550;11.940;2023-06-24T07:55:12;97728.38;;;26.74;53.15
36598;BME280;22607;49.550;11.940;2023-06-24T07:57:38;97723.31;;;26.51;52.72
36598;BME280;22607;49.550;11.940;2023-06-24T08:00:08;97716.69;;;26.64;53.77
36598;BME280;22607;49.550;11.940;2023-06-24T08:02:37;97734.22;;;24.98;58.04
36598;BME280;22607;49.550;11.940;2023-06-24T08:05:04;97739.81;;;24.79;56.50
36598;BME280;22607;49.550;11.940;2023-06-24T08:07:31;97736.09;;;25.32;55.78
36598;BME280;22607;49.550;11.940;2023-06-24T08:09:57;97735.44;;;26.03;54.56
36598;BME280;22607;49.550;11.940;2023-06-24T08:12:24;97737.19;;;25.53;55.74
36598;BME280;22607;49.550;11.940;2023-06-24T08:14:50;97733.06;;;26.07;52.11
36598;BME280;22607;49.550;11.940;2023-06-24T08:17:17;97736.44;;;26.69;49.77
36598;BME280;22607;49.550;11.940;2023-06-24T08:19:44;97745.41;;;26.80;49.46
36598;BME280;22607;49.550;11.940;2023-06-24T08:22:10;97732.66;;;26.70;47.71
36598;BME280;22607;49.550;11.940;2023-06-24T08:24:39;97731.63;;;27.04;46.78
36598;BME280;22607;49.550;11.940;2023-06-24T08:27:06;97738.84;;;26.98;48.39
36598;BME280;22607;49.550;11.940;2023-06-24T08:29:35;97747.03;;;26.04;48.46
36598;BME280;22607;49.550;11.940;2023-06-24T08:32:04;97740.59;;;25.65;47.86
36598;BME280;22607;49.550;11.940;2023-06-24T08:34:33;97745.22;;;26.32;50.32
36598;BME280;22607;49.550;11.940;2023-06-24T08:37:00;97731.53;;;27.32;48.93
36598;BME280;22607;49.550;11.940;2023-06-24T08:39:26;97733.66;;;27.73;48.11
36598;BME280;22607;49.550;11.940;2023-06-24T08:41:53;97727.25;;;26.98;44.46
36598;BME280;22607;49.550;11.940;2023-06-24T08:44:22;97731.25;;;27.28;46.63
36598;BME280;22607;49.550;11.940;2023-06-24T08:46:48;97740.75;;;27.41;45.84
36598;BME280;22607;49.550;11.940;2023-06-24T08:52:02;97720.28;;;27.94;44.05
36598;BME280;22607;49.550;11.940;2023-06-24T08:54:30;97737.66;;;27.22;46.01
36598;BME280;22607;49.550;11.940;2023-06-24T08:57:00;97730.44;;;27.28;45.19
36598;BME280;22607;49.550;11.940;2023-06-24T08:59:28;97729.66;;;27.32;44.63
36598;BME280;22607;49.550;11.940;2023-06-24T09:01:55;97733.19;;;26.72;44.28
36598;BME280;22607;49.550;11.940;2023-06-24T09:04:22;97735.69;;;27.07;42.94
36598;BME280;22607;49.550;11.940;2023-06-24T09:06:48;97727.91;;;27.59;42.63
36598;BME280;22607;49.550;11.940;2023-06-24T09:09:22;97725.09;;;27.38;43.07
36598;BME280;22607;49.550;11.940;2023-06-24T09:11:54;97723.19;;;26.95;45.52
36598;BME280;22607;49.550;11.940;2023-06-24T09:14:21;97737.06;;;26.82;44.22
36598;BME280;22607;49.550;11.940;2023-06-24T09:16:54;97721.13;;;26.47;46.18
36598;BME280;22607;49.550;11.940;2023-06-24T09:19:22;97723.66;;;26.09;48.23
36598;BME280;22607;49.550;11.940;2023-06-24T09:21:49;97718.97;;;27.10;45.97
36598;BME280;22607;49.550;11.940;2023-06-24T09:24:16;97707.31;;;27.42;44.95
36598;BME280;22607;49.550;11.940;2023-06-24T09:26:43;97717.44;;;28.26;42.54
36598;BME280;22607;49.550;11.940;2023-06-24T09:29:13;97711.19;;;28.21;42.68
36598;BME280;22607;49.550;11.940;2023-06-24T09:31:48;97705.44;;;27.43;41.67
36598;BME280;22607;49.550;11.940;2023-06-24T09:34:15;97720.34;;;27.56;43.39
36598;BME280;22607;49.550;11.940;2023-06-24T09:36:43;97715.66;;;27.84;41.91
36598;BME280;22607;49.550;11.940;2023-06-24T09:39:11;97701.78;;;28.28;40.75
36598;BME280;22607;49.550;11.940;2023-06-24T09:41:58;97702.78;;;28.17;42.63
36598;BME280;22607;49.550;11.940;2023-06-24T09:44:28;97707.00;;;27.82;40.96
36598;BME280;22607;49.550;11.940;2023-06-24T09:46:56;97695.16;;;27.88;41.25
36598;BME280;22607;49.550;11.940;2023-06-24T09:49:23;97697.97;;;28.24;40.46
36598;BME280;22607;49.550;11.940;2023-06-24T09:51:58;97691.50;;;28.36;39.63
36598;BME280;22607;49.550;11.940;2023-06-24T09:54:31;97700.72;;;27.17;41.21
36598;BME280;22607;49.550;11.940;2023-06-24T09:57:02;97705.78;;;27.57;41.55
36598;BME280;22607;49.550;11.940;2023-06-24T09:59:30;97688.75;;;28.15;39.75
36598;BME280;22607;49.550;11.940;2023-06-24T10:02:00;97685.63;;;28.65;39.30
36598;BME280;22607;49.550;11.940;2023-06-24T10:04:27;97674.78;;;28.54;38.80
36598;BME280;22607;49.550;11.940;2023-06-24T10:06:54;97686.53;;;27.86;42.68
36598;BME280;22607;49.550;11.940;2023-06-24T10:09:21;97687.09;;;27.45;42.99
36598;BME280;22607;49.550;11.940;2023-06-24T10:11:48;97693.22;;;26.92;43.77
36598;BME280;22607;49.550;11.940;2023-06-24T10:14:15;97683.22;;;27.73;41.44
36598;BME280;22607;49.550;11.940;2023-06-24T10:16:42;97674.78;;;28.60;39.46
36598;BME280;22607;49.550;11.940;2023-06-24T10:19:09;97671.56;;;28.52;40.03
36598;BME280;22607;49.550;11.940;2023-06-24T10:21:54;97668.59;;;28.69;38.65
36598;BME280;22607;49.550;11.940;2023-06-24T10:24:34;97664.69;;;27.98;39.38
36598;BME280;22607;49.550;11.940;2023-06-24T10:27:02;97661.81;;;28.30;41.43
36598;BME280;22607;49.550;11.940;2023-06-24T10:29:33;97663.97;;;28.39;40.85
36598;BME280;22607;49.550;11.940;2023-06-24T10:34:56;97665.28;;;27.51;41.23
36598;BME280;22607;49.550;11.940;2023-06-24T10:37:24;97662.00;;;28.08;39.85
36598;BME280;22607;49.550;11.940;2023-06-24T10:39:55;97656.44;;;28.56;39.81
36598;BME280;22607;49.550;11.940;2023-06-24T10:42:42;97646.94;;;28.33;38.08
36598;BME280;22607;49.550;11.940;2023-06-24T10:47:55;97656.66;;;27.44;40.11
36598;BME280;22607;49.550;11.940;2023-06-24T10:50:23;97656.41;;;28.36;39.38
36598;BME280;22607;49.550;11.940;2023-06-24T10:52:52;97648.88;;;28.74;38.55
36598;BME280;22607;49.550;11.940;2023-06-24T10:55:24;97638.00;;;29.26;36.33
36598;BME280;22607;49.550;11.940;2023-06-24T10:58:06;97629.94;;;28.95;36.33
36598;BME280;22607;49.550;11.940;2023-06-24T11:00:37;97625.53;;;29.30;36.15
36598;BME280;22607;49.550;11.940;2023-06-24T11:03:11;97611.00;;;29.00;36.99
36598;BME280;22607;49.550;11.940;2023-06-24T11:05:42;97618.59;;;28.36;37.75
36598;BME280;22607;49.550;11.940;2023-06-24T11:08:10;97603.75;;;28.28;39.32
36598;BME280;22607;49.550;11.940;2023-06-24T11:10:47;97618.06;;;28.28;38.80
36598;BME280;22607;49.550;11.940;2023-06-24T11:13:14;97603.47;;;28.40;40.32
36598;BME280;22607;49.550;11.940;2023-06-24T11:15:41;97615.78;;;27.73;38.90
36598;BME280;22607;49.550;11.940;2023-06-24T11:18:09;97615.31;;;28.13;39.95
36598;BME280;22607;49.550;11.940;2023-06-24T11:20:39;97604.53;;;28.80;37.76
36598;BME280;22607;49.550;11.940;2023-06-24T11:23:09;97607.25;;;28.60;38.02
36598;BME280;22607;49.550;11.940;2023-06-24T11:25:40;97601.84;;;28.91;35.83
36598;BME280;22607;49.550;11.940;2023-06-24T11:28:33;97615.63;;;28.89;39.09
36598;BME280;22607;49.550;11.940;2023-06-24T11:31:06;97600.22;;;28.64;34.36
36598;BME280;22607;49.550;11.940;2023-06-24T11:33:33;97605.63;;;28.59;37.70
36598;BME280;22607;49.550;11.940;2023-06-24T11:36:00;97597.25;;;28.29;37.11
36598;BME280;22607;49.550;11.940;2023-06-24T11:38:27;97593.22;;;28.42;37.08
36598;BME280;22607;49.550;11.940;2023-06-24T11:40:58;97591.28;;;28.89;35.82
36598;BME280;22607;49.550;11.940;2023-06-24T11:43:27;97594.25;;;28.77;33.15
36598;BME280;22607;49.550;11.940;2023-06-24T11:45:54;97589.94;;;28.76;33.73
36598;BME280;22607;49.550;11.940;2023-06-24T11:48:20;97594.81;;;28.74;34.62
36598;BME280;22607;49.550;11.940;2023-06-24T11:50:53;97586.44;;;28.65;34.56
36598;BME280;22607;49.550;11.940;2023-06-24T11:53:30;97574.31;;;28.52;35.17
36598;BME280;22607;49.550;11.940;2023-06-24T11:56:06;97581.56;;;28.15;35.65
36598;BME280;22607;49.550;11.940;2023-06-24T11:58:34;97590.22;;;28.23;35.60
36598;BME280;22607;49.550;11.940;2023-06-24T12:01:02;97581.31;;;28.53;36.25
36598;BME280;22607;49.550;11.940;2023-06-24T12:03:29;97583.50;;;28.62;34.58
36598;BME280;22607;49.550;11.940;2023-06-24T12:05:57;97582.13;;;28.02;35.98
36598;BME280;22607;49.550;11.940;2023-06-24T12:08:23;97581.28;;;27.91;35.89
36598;BME280;22607;49.550;11.940;2023-06-24T12:10:52;97587.25;;;28.24;35.54
36598;BME280;22607;49.550;11.940;2023-06-24T12:13:19;97587.28;;;28.35;34.05
36598;BME280;22607;49.550;11.940;2023-06-24T12:15:46;97582.41;;;28.32;32.73
36598;BME280;22607;49.550;11.940;2023-06-24T12:18:13;97582.94;;;28.23;32.43
36598;BME280;22607;49.550;11.940;2023-06-24T12:20:40;97585.09;;;28.16;34.09
36598;BME280;22607;49.550;11.940;2023-06-24T12:23:07;97583.16;;;27.96;34.64
36598;BME280;22607;49.550;11.940;2023-06-24T12:25:34;97575.06;;;27.80;34.45
36598;BME280;22607;49.550;11.940;2023-06-24T12:28:00;97579.94;;;28.09;35.22
36598;BME280;22607;49.550;11.940;2023-06-24T12:30:28;97577.75;;;27.96;33.40
36598;BME280;22607;49.550;11.940;2023-06-24T12:32:54;97565.63;;;27.93;34.18
36598;BME280;22607;49.550;11.940;2023-06-24T12:35:23;97561.56;;;27.90;34.16
36598;BME280;22607;49.550;11.940;2023-06-24T12:37:52;97563.22;;;28.23;35.86
36598;BME280;22607;49.550;11.940;2023-06-24T12:40:21;97559.19;;;28.46;34.44
36598;BME280;22607;49.550;11.940;2023-06-24T12:42:48;97570.00;;;28.36;35.32
36598;BME280;22607;49.550;11.940;2023-06-24T12:45:15;97552.66;;;27.85;34.19
36598;BME280;22607;49.550;11.940;2023-06-24T12:47:42;97561.88;;;27.99;34.39
36598;BME280;22607;49.550;11.940;2023-06-24T12:50:09;97562.41;;;27.96;33.42
36598;BME280;22607;49.550;11.940;2023-06-24T12:52:36;97550.47;;;27.66;35.71
36598;BME280;22607;49.550;11.940;2023-06-24T12:55:05;97554.28;;;27.91;34.68
36598;BME280;22607;49.550;11.940;2023-06-24T12:57:33;97547.25;;;27.69;35.26
36598;BME280;22607;49.550;11.940;2023-06-24T13:00:00;97552.38;;;27.97;35.30
36598;BME280;22607;49.550;11.940;2023-06-24T13:02:26;97537.84;;;28.29;36.58
36598;BME280;22607;49.550;11.940;2023-06-24T13:04:53;97550.50;;;27.97;34.89
36598;BME280;22607;49.550;11.940;2023-06-24T13:07:19;97546.16;;;27.75;35.32
36598;BME280;22607;49.550;11.940;2023-06-24T13:09:46;97539.72;;;27.82;35.13